Time;durP1;ratioP1;P1;durP2;ratioP2;P2;SDS_P1;SDS_P2;PMS_P1;PMS_P2;Temp;Humidity;BMP_temperature;BMP_pressure;BME280_temperature;BME280_humidity;BME280_pressure;Samples;Min_cycle;Max_cycle;Signal;HPM_P1;HPM_P2
2024/01/30 00:00:35;;;;;;;7.20;4.57;;;21.90;33.20;;;;;;4957946;28;20055;-58
2024/01/30 00:03:02;;;;;;;4.90;3.90;;;21.90;33.20;;;;;;4960370;28;20059;-58
2024/01/30 00:05:30;;;;;;;5.50;4.20;;;21.90;33.10;;;;;;4957944;28;20050;-59
2024/01/30 00:07:58;;;;;;;5.70;4.20;;;21.90;33.10;;;;;;4960848;28;20062;-58
2024/01/30 00:10:25;;;;;;;5.65;4.45;;;21.90;33.10;;;;;;4959632;28;20059;-58
2024/01/30 00:12:52;;;;;;;7.82;4.90;;;21.90;33.00;;;;;;4958813;28;20058;-56
2024/01/30 00:15:19;;;;;;;6.70;4.53;;;22.00;33.10;;;;;;4959195;28;20063;-58
2024/01/30 00:17:46;;;;;;;5.53;4.28;;;22.00;33.00;;;;;;4960585;28;20059;-58
2024/01/30 00:20:14;;;;;;;6.55;4.53;;;22.00;33.00;;;;;;4958057;28;20047;-58
2024/01/30 00:22:42;;;;;;;7.35;4.57;;;22.00;33.00;;;;;;4959653;28;20060;-58
2024/01/30 00:25:09;;;;;;;6.13;4.38;;;22.00;33.00;;;;;;4957760;28;20062;-58
2024/01/30 00:27:36;;;;;;;6.40;4.95;;;21.90;33.00;;;;;;4959787;28;20062;-58
2024/01/30 00:30:04;;;;;;;6.38;4.50;;;21.90;33.00;;;;;;4959809;28;20066;-60
2024/01/30 00:32:32;;;;;;;7.05;4.93;;;21.90;33.00;;;;;;4958513;28;20062;-60
2024/01/30 00:34:59;;;;;;;4.80;4.07;;;21.90;33.00;;;;;;4962407;28;20046;-59
2024/01/30 00:37:26;;;;;;;5.85;4.47;;;21.90;33.00;;;;;;4959161;28;20055;-60
2024/01/30 00:39:54;;;;;;;6.38;4.20;;;21.90;33.00;;;;;;4959917;28;20404;-60
2024/01/30 00:42:23;;;;;;;6.18;4.35;;;21.80;32.90;;;;;;4960972;28;20086;-60
2024/01/30 00:44:50;;;;;;;8.00;5.07;;;21.80;32.90;;;;;;4963007;28;20080;-59
2024/01/30 00:47:18;;;;;;;6.40;4.53;;;21.80;32.90;;;;;;4962524;28;20054;-59
2024/01/30 00:49:45;;;;;;;6.18;4.13;;;21.80;33.00;;;;;;4963354;28;20066;-59
2024/01/30 00:52:12;;;;;;;6.88;4.82;;;21.80;33.00;;;;;;4960404;28;20058;-58
2024/01/30 00:54:40;;;;;;;4.68;4.05;;;21.70;32.90;;;;;;4963708;28;20491;-59
2024/01/30 00:57:08;;;;;;;9.00;4.68;;;21.70;33.00;;;;;;4962092;28;20073;-59
2024/01/30 00:59:36;;;;;;;6.53;4.43;;;21.70;33.00;;;;;;4961579;28;20097;-57
2024/01/30 01:02:04;;;;;;;6.40;4.13;;;21.70;33.10;;;;;;4963048;28;20051;-55
2024/01/30 01:04:31;;;;;;;6.90;4.32;;;21.70;33.10;;;;;;4964093;28;20055;-60
2024/01/30 01:06:58;;;;;;;6.50;4.10;;;21.70;33.10;;;;;;4961482;28;20065;-60
2024/01/30 01:09:25;;;;;;;11.52;4.50;;;21.70;33.10;;;;;;4963939;28;20054;-60
2024/01/30 01:11:52;;;;;;;8.85;4.15;;;21.80;33.10;;;;;;4960405;28;20077;-59
2024/01/30 01:14:21;;;;;;;5.72;4.43;;;21.90;33.10;;;;;;4962368;28;20423;-61
2024/01/30 01:16:48;;;;;;;7.68;4.50;;;21.80;33.10;;;;;;4962176;28;20407;-59
2024/01/30 01:19:15;;;;;;;5.75;3.88;;;21.90;33.10;;;;;;4962386;28;20055;-60
2024/01/30 01:21:43;;;;;;;5.63;4.18;;;21.90;33.00;;;;;;4963464;28;20051;-60
2024/01/30 01:24:10;;;;;;;7.22;4.25;;;21.90;33.00;;;;;;4960445;28;20051;-59
2024/01/30 01:26:37;;;;;;;6.18;4.10;;;22.00;33.00;;;;;;4960974;28;20419;-58
2024/01/30 01:29:09;;;;;;;6.00;4.47;;;21.90;32.90;;;;;;4961615;28;20407;-57
2024/01/30 01:31:43;;;;;;;5.72;4.07;;;22.00;33.00;;;;;;4963033;28;20061;-58
2024/01/30 01:34:10;;;;;;;5.55;4.13;;;22.00;33.00;;;;;;4963049;28;20065;-60
2024/01/30 01:36:38;;;;;;;5.80;4.28;;;22.00;32.90;;;;;;4961220;28;20073;-60
2024/01/30 01:39:05;;;;;;;6.55;4.43;;;22.00;32.90;;;;;;4961753;28;20055;-58
2024/01/30 01:41:32;;;;;;;5.50;4.30;;;22.00;32.90;;;;;;4961090;28;21412;-58
2024/01/30 01:44:00;;;;;;;6.68;4.35;;;21.90;32.90;;;;;;4962080;28;20047;-58
2024/01/30 01:46:30;;;;;;;6.50;4.68;;;21.90;32.90;;;;;;4959448;28;20415;-59
2024/01/30 01:49:00;;;;;;;5.22;4.20;;;21.90;32.90;;;;;;4961573;28;20077;-58
2024/01/30 01:51:30;;;;;;;6.55;4.57;;;21.90;32.90;;;;;;4962196;28;20062;-58
2024/01/30 01:53:59;;;;;;;7.53;4.38;;;21.90;32.90;;;;;;4963019;28;20507;-58
2024/01/30 01:56:27;;;;;;;6.22;4.22;;;21.90;32.90;;;;;;4959876;28;20065;-56
2024/01/30 01:58:56;;;;;;;6.50;4.28;;;21.80;32.80;;;;;;4961118;28;20055;-58
2024/01/30 02:01:25;;;;;;;6.47;4.07;;;21.80;32.90;;;;;;4962745;28;20531;-58
2024/01/30 02:03:53;;;;;;;6.07;4.43;;;21.80;32.90;;;;;;4962731;28;20623;-58
2024/01/30 02:06:21;;;;;;;6.70;3.95;;;21.80;32.90;;;;;;4961321;28;20055;-58
2024/01/30 02:08:48;;;;;;;5.30;4.20;;;21.80;32.90;;;;;;4959243;28;20062;-58
2024/01/30 02:11:16;;;;;;;5.25;3.85;;;21.70;32.90;;;;;;4958995;28;20058;-55
2024/01/30 02:13:44;;;;;;;5.38;4.00;;;21.70;32.90;;;;;;4962450;28;20054;-58
2024/01/30 02:16:11;;;;;;;5.32;3.70;;;21.80;33.00;;;;;;4960034;28;20065;-58
2024/01/30 02:18:43;;;;;;;5.75;4.00;;;21.80;33.10;;;;;;4961720;28;20062;-58
2024/01/30 02:21:11;;;;;;;5.57;4.20;;;21.80;33.10;;;;;;4960272;28;20066;-58
2024/01/30 02:23:40;;;;;;;5.43;3.70;;;21.80;33.00;;;;;;4959509;28;20055;-58
2024/01/30 02:26:07;;;;;;;5.45;3.88;;;21.80;33.00;;;;;;4959877;28;20628;-58
2024/01/30 02:28:34;;;;;;;7.15;4.05;;;21.80;33.00;;;;;;4960037;28;20495;-56
2024/01/30 02:31:02;;;;;;;5.53;4.25;;;21.90;33.00;;;;;;4960747;28;20772;-58
2024/01/30 02:33:29;;;;;;;6.07;3.85;;;21.90;33.00;;;;;;4962519;28;20074;-58
2024/01/30 02:35:57;;;;;;;6.53;3.78;;;21.90;33.00;;;;;;4959804;28;20058;-58
2024/01/30 02:38:26;;;;;;;4.72;3.72;;;21.90;33.00;;;;;;4960654;28;20129;-58
2024/01/30 02:40:54;;;;;;;4.72;3.70;;;21.90;33.00;;;;;;4961211;28;20070;-58
2024/01/30 02:43:21;;;;;;;5.13;3.92;;;21.90;32.90;;;;;;4960509;28;20053;-58
2024/01/30 02:45:48;;;;;;;5.47;3.97;;;21.90;32.90;;;;;;4960203;28;20057;-59
2024/01/30 02:48:15;;;;;;;5.50;4.13;;;21.90;32.90;;;;;;4961437;28;20510;-58
2024/01/30 02:50:45;;;;;;;6.15;4.38;;;21.90;32.90;;;;;;4958427;28;20424;-58
2024/01/30 02:53:13;;;;;;;5.88;4.07;;;21.90;32.90;;;;;;4959539;28;20117;-58
2024/01/30 02:55:42;;;;;;;5.80;4.32;;;21.90;32.90;;;;;;4962057;28;20491;-58
2024/01/30 02:58:09;;;;;;;5.68;3.95;;;21.90;32.90;;;;;;4962500;28;20058;-58
2024/01/30 03:00:38;;;;;;;5.47;3.90;;;21.80;32.90;;;;;;4963434;28;20074;-58
2024/01/30 03:03:05;;;;;;;6.53;4.43;;;21.80;32.90;;;;;;4960876;28;20047;-59
2024/01/30 03:05:33;;;;;;;11.93;3.90;;;21.80;32.90;;;;;;4961524;28;20421;-59
2024/01/30 03:08:00;;;;;;;12.82;4.70;;;21.80;32.90;;;;;;4962761;28;20058;-60
2024/01/30 03:10:28;;;;;;;9.43;4.72;;;21.80;32.90;;;;;;4962343;28;20419;-60
2024/01/30 03:12:56;;;;;;;23.77;5.25;;;21.70;32.90;;;;;;4962260;28;20065;-60
2024/01/30 03:15:23;;;;;;;10.07;4.88;;;21.70;32.90;;;;;;4965897;28;20058;-58
2024/01/30 03:17:51;;;;;;;11.90;4.78;;;21.70;32.80;;;;;;4965430;28;20054;-60
2024/01/30 03:20:18;;;;;;;14.25;5.00;;;21.70;32.90;;;;;;4962928;28;20054;-62
2024/01/30 03:22:47;;;;;;;8.90;4.63;;;21.70;32.90;;;;;;4966533;28;20058;-64
2024/01/30 03:25:15;;;;;;;7.65;4.13;;;21.70;33.00;;;;;;4965847;28;20518;-64
2024/01/30 03:27:43;;;;;;;6.57;4.47;;;21.70;33.00;;;;;;4968182;28;20050;-64
2024/01/30 03:30:12;;;;;;;9.18;4.40;;;21.60;32.90;;;;;;4972039;28;20051;-64
2024/01/30 03:32:39;;;;;;;7.28;4.40;;;21.60;33.00;;;;;;4967534;28;20498;-65
2024/01/30 03:35:07;;;;;;;5.90;4.10;;;21.60;33.00;;;;;;4967662;28;20051;-63
2024/01/30 03:37:34;;;;;;;13.55;4.35;;;21.60;33.00;;;;;;4965910;28;20055;-63
2024/01/30 03:40:02;;;;;;;7.72;4.32;;;21.50;33.00;;;;;;4965834;28;20423;-63
2024/01/30 03:42:30;;;;;;;7.20;4.20;;;21.50;33.00;;;;;;4964103;28;20059;-63
2024/01/30 03:44:57;;;;;;;5.47;4.15;;;21.50;33.00;;;;;;4967964;28;20047;-63
2024/01/30 03:47:26;;;;;;;5.47;4.15;;;21.50;33.10;;;;;;4964556;28;20051;-61
2024/01/30 03:49:53;;;;;;;7.30;4.63;;;21.40;33.00;;;;;;4963160;28;20431;-62
2024/01/30 03:52:20;;;;;;;6.80;4.15;;;21.40;33.00;;;;;;4964589;28;20063;-61
2024/01/30 03:54:47;;;;;;;7.03;4.63;;;21.40;33.10;;;;;;4967168;28;20065;-60
2024/01/30 03:57:15;;;;;;;5.38;4.10;;;21.40;33.10;;;;;;4967828;28;20050;-61
2024/01/30 03:59:43;;;;;;;6.55;4.05;;;21.30;33.10;;;;;;4967363;28;20054;-61
2024/01/30 04:02:11;;;;;;;5.78;4.38;;;21.30;33.10;;;;;;4967564;28;20518;-61
2024/01/30 04:04:39;;;;;;;5.60;3.95;;;21.30;33.20;;;;;;4968605;28;20054;-61
2024/01/30 04:07:07;;;;;;;6.88;4.03;;;21.30;33.20;;;;;;4964719;28;20058;-61
2024/01/30 04:09:34;;;;;;;6.72;3.72;;;21.30;33.30;;;;;;4966246;28;20534;-61
2024/01/30 04:12:02;;;;;;;5.50;3.72;;;21.30;33.30;;;;;;4966457;28;20058;-61
2024/01/30 04:14:30;;;;;;;12.35;4.25;;;21.40;33.30;;;;;;4964880;28;20071;-62
2024/01/30 04:16:57;;;;;;;6.28;3.85;;;21.40;33.30;;;;;;4968661;28;20077;-60
2024/01/30 04:19:24;;;;;;;5.35;3.78;;;21.40;33.30;;;;;;4969565;28;20057;-61
2024/01/30 04:21:53;;;;;;;5.95;4.15;;;21.40;33.30;;;;;;4969088;28;20046;-61
2024/01/30 04:24:20;;;;;;;4.68;3.50;;;21.40;33.30;;;;;;4969090;28;20089;-60
2024/01/30 04:26:46;;;;;;;4.45;3.35;;;21.50;33.30;;;;;;4967641;28;20856;-61
2024/01/30 04:29:13;;;;;;;6.05;3.97;;;21.50;33.30;;;;;;4969169;28;20789;-59
2024/01/30 04:31:40;;;;;;;5.38;3.38;;;21.60;33.30;;;;;;4968679;28;20069;-61
2024/01/30 04:34:08;;;;;;;6.35;3.47;;;21.60;33.30;;;;;;4969902;28;20503;-61
2024/01/30 04:36:35;;;;;;;5.70;3.45;;;21.70;33.30;;;;;;4970030;28;20058;-60
2024/01/30 04:39:04;;;;;;;5.57;3.80;;;21.70;33.20;;;;;;4969075;28;20050;-61
2024/01/30 04:41:32;;;;;;;4.82;3.35;;;21.70;33.20;;;;;;4969869;28;20423;-60
2024/01/30 04:43:59;;;;;;;4.50;3.47;;;21.80;33.10;;;;;;4970316;28;20055;-61
2024/01/30 04:46:26;;;;;;;4.45;3.72;;;21.80;33.10;;;;;;4968580;28;20140;-60
2024/01/30 04:48:53;;;;;;;5.07;3.50;;;21.80;33.10;;;;;;4966916;28;20054;-62
2024/01/30 04:51:21;;;;;;;9.27;3.40;;;21.80;33.10;;;;;;4967757;28;20065;-60
2024/01/30 04:53:48;;;;;;;13.13;3.72;;;21.90;33.30;;;;;;4966682;28;20252;-60
2024/01/30 04:56:17;;;;;;;13.63;4.65;;;21.90;33.30;;;;;;4966569;28;20043;-62
2024/01/30 04:58:43;;;;;;;6.82;4.53;;;21.90;33.30;;;;;;4962641;28;20058;-62
2024/01/30 05:01:10;;;;;;;10.07;5.43;;;22.00;33.30;;;;;;4966674;28;20059;-65
2024/01/30 05:03:37;;;;;;;12.95;4.65;;;22.00;33.10;;;;;;4965696;28;20070;-64
2024/01/30 05:06:05;;;;;;;13.48;7.45;;;22.00;33.00;;;;;;4971586;28;20054;-63
2024/01/30 05:08:32;;;;;;;78.18;45.95;;;22.00;33.00;;;;;;4972947;28;20050;-63
2024/01/30 05:11:02;;;;;;;101.28;55.03;;;22.10;33.00;;;;;;4967249;28;20066;-61
2024/01/30 05:13:31;;;;;;;68.05;36.65;;;22.10;33.00;;;;;;4967911;28;20422;-63
2024/01/30 05:15:59;;;;;;;47.05;27.15;;;22.10;32.90;;;;;;4968059;28;20066;-59
2024/01/30 05:18:26;;;;;;;33.00;19.98;;;22.10;32.90;;;;;;4967572;28;20081;-60
2024/01/30 05:20:53;;;;;;;33.47;18.67;;;22.10;33.00;;;;;;4969948;28;20066;-60
2024/01/30 05:23:20;;;;;;;28.58;15.75;;;22.10;33.00;;;;;;4969603;28;20415;-61
2024/01/30 05:25:47;;;;;;;23.95;14.68;;;22.10;33.00;;;;;;4966158;28;20054;-62
2024/01/30 05:28:15;;;;;;;21.40;14.30;;;22.10;33.00;;;;;;4963376;28;20073;-60
2024/01/30 05:30:43;;;;;;;27.33;13.00;;;22.10;33.00;;;;;;4964945;28;20062;-60
2024/01/30 05:33:11;;;;;;;27.25;12.35;;;22.10;33.00;;;;;;4965896;28;20126;-60
2024/01/30 05:35:39;;;;;;;85.28;48.92;;;22.10;33.00;;;;;;4968605;28;20047;-59
2024/01/30 05:38:06;;;;;;;137.45;82.93;;;22.10;32.90;;;;;;4967255;28;20051;-60
2024/01/30 05:40:33;;;;;;;109.38;68.72;;;22.10;32.90;;;;;;4976312;23;20065;-61
2024/01/30 05:43:02;;;;;;;75.47;45.33;;;22.10;32.80;;;;;;4919053;28;73813;-61
2024/01/30 05:45:29;;;;;;;56.58;33.67;;;22.00;32.90;;;;;;4980719;28;20046;-58
2024/01/30 05:47:58;;;;;;;56.30;32.35;;;22.00;32.90;;;;;;4983124;28;20062;-61
2024/01/30 05:50:26;;;;;;;50.78;29.40;;;22.00;32.90;;;;;;4984610;28;20414;-63
2024/01/30 05:52:53;;;;;;;43.50;25.65;;;21.90;32.90;;;;;;4985135;28;20054;-61
2024/01/30 05:55:20;;;;;;;42.83;24.35;;;21.90;33.00;;;;;;4984518;28;20053;-61
2024/01/30 05:57:48;;;;;;;39.55;24.13;;;21.90;33.00;;;;;;4983262;28;20058;-60
2024/01/30 06:00:16;;;;;;;39.47;22.45;;;21.90;33.00;;;;;;4984821;28;20061;-59
2024/01/30 06:02:43;;;;;;;41.30;21.75;;;21.90;33.00;;;;;;4985440;28;20050;-60
2024/01/30 06:05:12;;;;;;;44.83;23.23;;;21.80;33.00;;;;;;4985175;28;20062;-60
2024/01/30 06:07:39;;;;;;;31.92;18.95;;;21.80;33.00;;;;;;4979325;28;20058;-59
2024/01/30 06:10:08;;;;;;;32.83;18.83;;;21.80;33.00;;;;;;4984511;28;20482;-58
2024/01/30 06:12:35;;;;;;;26.55;16.75;;;21.80;33.10;;;;;;4971320;28;20054;-61
2024/01/30 06:15:03;;;;;;;33.55;16.15;;;21.70;33.10;;;;;;4960139;28;20058;-64
2024/01/30 06:17:30;;;;;;;29.27;16.02;;;21.70;33.10;;;;;;4964159;28;20523;-60
2024/01/30 06:19:57;;;;;;;58.92;37.50;;;21.80;33.30;;;;;;4965434;28;20055;-61
2024/01/30 06:22:26;;;;;;;103.10;61.88;;;21.70;33.20;;;;;;4964754;28;20050;-60
2024/01/30 06:24:53;;;;;;;74.72;47.50;;;21.80;33.20;;;;;;4961683;28;20055;-62
2024/01/30 06:27:20;;;;;;;52.55;34.63;;;21.80;33.10;;;;;;4963798;28;20081;-61
2024/01/30 06:29:48;;;;;;;47.50;29.70;;;21.90;33.10;;;;;;4966915;28;20063;-62
2024/01/30 06:32:15;;;;;;;48.85;29.70;;;21.90;33.10;;;;;;4965426;28;20050;-60
2024/01/30 06:34:44;;;;;;;43.67;26.27;;;21.90;33.10;;;;;;4966008;28;20058;-60
2024/01/30 06:37:11;;;;;;;48.85;28.25;;;21.90;33.10;;;;;;4966419;28;20423;-60
2024/01/30 06:39:39;;;;;;;41.20;25.20;;;22.00;33.10;;;;;;4961927;28;20054;-60
2024/01/30 06:42:07;;;;;;;46.50;26.17;;;22.00;33.10;;;;;;4964303;28;20063;-60
2024/01/30 06:44:34;;;;;;;56.70;27.92;;;22.10;33.10;;;;;;4964088;28;20121;-58
2024/01/30 06:47:01;;;;;;;52.72;29.02;;;22.10;33.10;;;;;;4963642;28;20054;-61
2024/01/30 06:49:28;;;;;;;57.17;30.80;;;22.20;33.10;;;;;;4963375;28;20062;-59
2024/01/30 06:51:56;;;;;;;66.00;35.30;;;22.20;33.10;;;;;;4964409;28;20520;-60
2024/01/30 06:54:23;;;;;;;51.28;30.02;;;22.20;33.00;;;;;;4964856;28;20730;-58
2024/01/30 06:56:51;;;;;;;48.15;26.85;;;22.20;32.90;;;;;;4958596;28;20412;-59
2024/01/30 06:59:19;;;;;;;45.20;23.55;;;22.30;32.90;;;;;;4961819;28;20059;-58
2024/01/30 07:01:46;;;;;;;40.20;22.70;;;22.20;32.80;;;;;;4967181;28;20062;-58
2024/01/30 07:04:13;;;;;;;39.78;22.88;;;22.30;32.80;;;;;;4964305;28;20066;-57
2024/01/30 07:06:40;;;;;;;34.90;21.38;;;22.30;32.90;;;;;;4963241;28;20491;-57
2024/01/30 07:09:08;;;;;;;35.45;19.98;;;22.20;32.80;;;;;;4964652;28;20062;-60
2024/01/30 07:11:36;;;;;;;32.22;18.92;;;22.30;32.80;;;;;;4964398;28;20145;-58
2024/01/30 07:14:05;;;;;;;35.03;18.50;;;22.30;32.80;;;;;;4962650;28;20508;-59
2024/01/30 07:16:32;;;;;;;31.17;16.35;;;22.20;32.80;;;;;;4964947;28;20054;-60
2024/01/30 07:18:59;;;;;;;32.13;16.88;;;22.20;32.70;;;;;;4965699;28;20054;-58
2024/01/30 07:21:28;;;;;;;28.80;15.70;;;22.20;32.70;;;;;;4964587;28;20046;-59
2024/01/30 07:23:55;;;;;;;25.83;15.18;;;22.20;32.70;;;;;;4965287;28;20061;-60
2024/01/30 07:26:22;;;;;;;28.90;15.63;;;22.20;32.70;;;;;;4962967;28;20518;-58
2024/01/30 07:28:50;;;;;;;18.30;10.82;;;22.20;32.70;;;;;;4962975;28;20055;-61
2024/01/30 07:31:20;;;;;;;15.85;10.13;;;22.20;32.60;;;;;;4965489;28;20423;-63
2024/01/30 07:33:47;;;;;;;15.55;8.45;;;22.10;32.40;;;;;;4965301;28;20629;-62
2024/01/30 07:36:15;;;;;;;10.80;7.15;;;22.10;32.30;;;;;;4957797;28;20500;-62
2024/01/30 07:38:42;;;;;;;13.77;6.80;;;22.00;32.20;;;;;;4962923;28;20055;-62
2024/01/30 07:41:09;;;;;;;15.63;6.90;;;22.00;32.10;;;;;;4960135;28;20427;-64
2024/01/30 07:43:36;;;;;;;16.10;6.68;;;21.90;32.00;;;;;;4962764;28;20058;-63
2024/01/30 07:46:06;;;;;;;11.95;6.88;;;21.90;32.20;;;;;;4968068;28;20054;-64
2024/01/30 07:48:34;;;;;;;13.18;7.13;;;21.80;32.20;;;;;;4961302;28;20055;-64
2024/01/30 07:51:03;;;;;;;23.33;6.55;;;21.80;32.40;;;;;;4966086;28;20055;-64
2024/01/30 07:53:30;;;;;;;14.68;6.65;;;21.70;32.50;;;;;;4969062;28;20051;-60
2024/01/30 07:55:58;;;;;;;18.63;6.10;;;21.70;32.60;;;;;;4968818;28;20066;-64
2024/01/30 07:58:27;;;;;;;16.52;5.57;;;21.80;32.70;;;;;;4971646;28;20054;-64
2024/01/30 08:00:56;;;;;;;25.75;5.53;;;21.80;32.80;;;;;;4968054;28;20411;-64
2024/01/30 08:03:23;;;;;;;16.92;5.35;;;21.80;32.90;;;;;;4973450;28;20062;-63
2024/01/30 08:05:52;;;;;;;16.85;6.22;;;21.80;32.90;;;;;;4962695;28;20059;-63
2024/01/30 08:08:19;;;;;;;12.80;5.47;;;21.80;32.90;;;;;;4962410;28;20503;-63
2024/01/30 08:10:48;;;;;;;10.30;5.85;;;21.80;32.80;;;;;;4966795;28;20070;-64
2024/01/30 08:13:15;;;;;;;9.70;5.38;;;21.90;32.90;;;;;;4969662;28;20057;-65
2024/01/30 08:15:42;;;;;;;7.78;4.90;;;21.90;32.80;;;;;;4969767;28;20051;-66
2024/01/30 08:18:09;;;;;;;8.95;5.63;;;21.90;32.80;;;;;;4969672;28;20392;-63
2024/01/30 08:20:36;;;;;;;13.25;5.85;;;21.90;32.70;;;;;;4963748;28;20055;-61
2024/01/30 08:23:05;;;;;;;9.32;5.40;;;21.90;32.70;;;;;;4963579;28;20059;-61
2024/01/30 08:25:32;;;;;;;10.52;4.93;;;21.90;32.70;;;;;;4967966;28;20051;-62
2024/01/30 08:27:59;;;;;;;11.63;5.13;;;21.90;32.80;;;;;;4965251;28;20051;-61
2024/01/30 08:30:27;;;;;;;18.20;5.53;;;21.90;32.80;;;;;;4963842;28;20059;-61
2024/01/30 08:32:54;;;;;;;12.52;5.00;;;21.90;32.80;;;;;;4965701;28;20655;-61
2024/01/30 08:35:21;;;;;;;14.02;4.97;;;21.90;32.90;;;;;;4967134;28;20065;-61
2024/01/30 08:37:49;;;;;;;8.70;4.95;;;21.90;32.90;;;;;;4962762;28;20047;-62
2024/01/30 08:40:17;;;;;;;6.05;4.20;;;21.90;32.90;;;;;;4968895;28;20055;-61
2024/01/30 08:42:44;;;;;;;8.98;4.53;;;22.00;33.00;;;;;;4964123;28;20066;-61
2024/01/30 08:45:12;;;;;;;9.80;4.50;;;22.00;32.90;;;;;;4967322;28;20055;-60
2024/01/30 08:47:39;;;;;;;10.82;4.82;;;22.00;32.90;;;;;;4964172;28;20054;-60
2024/01/30 08:50:08;;;;;;;9.88;4.47;;;22.10;32.90;;;;;;4964555;28;20055;-62
2024/01/30 08:52:35;;;;;;;68.65;34.03;;;22.10;32.90;;;;;;4966145;28;20059;-62
2024/01/30 08:55:03;;;;;;;138.18;77.15;;;22.10;32.90;;;;;;4963922;28;20051;-61
2024/01/30 08:57:32;;;;;;;94.95;53.15;;;22.10;32.90;;;;;;4962534;28;20051;-61
2024/01/30 08:59:59;;;;;;;69.55;37.40;;;22.20;33.00;;;;;;4968461;28;20057;-61
2024/01/30 09:02:26;;;;;;;47.15;28.25;;;22.20;32.90;;;;;;4962969;28;20415;-61
2024/01/30 09:04:53;;;;;;;63.00;24.83;;;22.20;32.90;;;;;;4963949;28;20058;-61
2024/01/30 09:07:21;;;;;;;32.65;21.27;;;22.30;33.00;;;;;;4965678;28;20051;-63
2024/01/30 09:09:49;;;;;;;30.48;19.35;;;22.30;32.90;;;;;;4965763;28;20069;-57
2024/01/30 09:12:16;;;;;;;29.92;18.13;;;22.40;32.90;;;;;;4966019;28;20067;-58
2024/01/30 09:14:45;;;;;;;28.77;16.55;;;22.40;32.90;;;;;;4958863;28;20507;-60
2024/01/30 09:17:13;;;;;;;26.77;16.33;;;22.40;32.90;;;;;;4965339;28;20058;-61
2024/01/30 09:19:41;;;;;;;30.88;14.93;;;22.40;32.90;;;;;;4968574;28;20047;-62
2024/01/30 09:22:08;;;;;;;29.38;14.93;;;22.50;32.90;;;;;;4964305;28;20411;-60
2024/01/30 09:24:35;;;;;;;22.88;14.25;;;22.50;32.90;;;;;;4966936;28;20428;-61
2024/01/30 09:27:03;;;;;;;20.73;12.55;;;22.50;32.90;;;;;;4964933;28;20062;-61
2024/01/30 09:29:30;;;;;;;24.45;11.73;;;22.40;32.90;;;;;;4964700;28;20051;-57
2024/01/30 09:31:58;;;;;;;22.80;11.60;;;22.40;32.90;;;;;;4967958;28;20062;-58
2024/01/30 09:34:26;;;;;;;24.42;11.77;;;22.40;32.90;;;;;;4965579;28;20062;-59
2024/01/30 09:36:53;;;;;;;19.00;10.05;;;22.50;33.00;;;;;;4960750;28;20062;-60
2024/01/30 09:39:20;;;;;;;18.30;8.68;;;22.40;32.90;;;;;;4966681;28;20051;-61
2024/01/30 09:41:55;;;;;;;13.60;8.13;;;22.40;32.80;;;;;;4964958;28;20065;-61
2024/01/30 09:44:26;;;;;;;18.33;8.60;;;22.40;32.80;;;;;;4964442;28;20062;-61
2024/01/30 09:46:54;;;;;;;15.02;8.70;;;22.40;32.90;;;;;;4962944;28;20059;-61
2024/01/30 09:49:24;;;;;;;14.10;8.15;;;22.30;32.80;;;;;;4966927;28;20047;-62
2024/01/30 09:51:52;;;;;;;9.70;7.40;;;22.30;32.80;;;;;;4964712;28;20838;-62
2024/01/30 09:54:21;;;;;;;13.52;8.02;;;22.30;33.40;;;;;;4966109;28;20507;-60
2024/01/30 09:56:49;;;;;;;12.18;7.45;;;22.20;32.80;;;;;;4962608;28;20058;-59
2024/01/30 09:59:16;;;;;;;13.00;7.70;;;22.20;32.90;;;;;;4959447;28;20055;-61
2024/01/30 10:01:44;;;;;;;12.05;6.32;;;22.20;32.90;;;;;;4961750;28;20062;-61
2024/01/30 10:04:11;;;;;;;12.05;6.43;;;22.20;32.90;;;;;;4961478;28;20058;-63
2024/01/30 10:06:41;;;;;;;10.82;5.90;;;22.20;32.90;;;;;;4960260;28;20055;-59
2024/01/30 10:09:09;;;;;;;11.32;6.70;;;22.10;32.90;;;;;;4962660;28;20058;-60
2024/01/30 10:11:37;;;;;;;8.93;6.35;;;22.10;32.90;;;;;;4959288;28;20058;-60
2024/01/30 10:14:04;;;;;;;11.25;6.10;;;22.10;33.00;;;;;;4960436;28;20055;-59
2024/01/30 10:16:32;;;;;;;10.35;5.75;;;22.00;32.90;;;;;;4959869;28;20062;-62
2024/01/30 10:18:59;;;;;;;7.93;5.55;;;22.00;33.00;;;;;;4957818;28;20058;-58
2024/01/30 10:21:26;;;;;;;11.05;5.70;;;22.00;33.00;;;;;;4962213;28;20631;-58
2024/01/30 10:23:55;;;;;;;10.80;6.10;;;22.00;33.10;;;;;;4966099;28;20319;-59
2024/01/30 10:26:23;;;;;;;8.40;5.60;;;21.90;33.00;;;;;;4961358;28;20469;-61
2024/01/30 10:28:51;;;;;;;7.65;5.65;;;21.90;33.10;;;;;;4957930;28;20052;-58
2024/01/30 10:31:19;;;;;;;10.25;5.80;;;21.90;33.10;;;;;;4960590;28;20051;-60
2024/01/30 10:33:47;;;;;;;7.45;5.20;;;21.90;33.10;;;;;;4959820;28;20059;-61
2024/01/30 10:36:16;;;;;;;8.75;5.20;;;21.80;33.20;;;;;;4962951;28;20212;-58
2024/01/30 10:38:46;;;;;;;8.55;4.82;;;21.90;33.20;;;;;;4956639;28;20055;-58
2024/01/30 10:41:19;;;;;;;7.63;5.20;;;21.80;33.20;;;;;;4957898;28;20062;-58
2024/01/30 10:43:59;;;;;;;9.77;5.55;;;21.80;33.30;;;;;;4957695;28;20392;-61
2024/01/30 10:46:32;;;;;;;8.15;5.43;;;21.90;33.30;;;;;;4962745;28;20055;-61
2024/01/30 10:49:00;;;;;;;8.52;4.93;;;21.90;33.30;;;;;;4965601;28;20062;-60
2024/01/30 10:51:28;;;;;;;8.70;4.90;;;21.90;33.30;;;;;;4966619;28;20510;-59
2024/01/30 10:53:57;;;;;;;7.80;5.15;;;21.90;33.30;;;;;;4961688;28;20419;-60
2024/01/30 10:56:26;;;;;;;7.10;4.80;;;21.90;33.30;;;;;;4965106;28;20428;-58
2024/01/30 10:58:55;;;;;;;7.40;4.97;;;22.00;33.30;;;;;;4962546;28;20057;-59
2024/01/30 11:01:23;;;;;;;6.63;4.68;;;21.90;33.20;;;;;;4964959;28;20050;-62
2024/01/30 11:03:52;;;;;;;6.15;4.45;;;22.00;33.30;;;;;;4966280;28;20492;-63
2024/01/30 11:06:22;;;;;;;6.00;3.97;;;22.00;33.30;;;;;;4962673;28;20407;-60
2024/01/30 11:09:02;;;;;;;5.93;4.97;;;22.00;33.30;;;;;;4962800;28;20051;-57
2024/01/30 11:11:30;;;;;;;6.95;4.32;;;22.00;33.30;;;;;;4962374;28;20487;-58
2024/01/30 11:14:02;;;;;;;7.70;4.18;;;22.00;33.20;;;;;;4961872;28;20069;-60
2024/01/30 11:16:32;;;;;;;6.90;4.60;;;22.00;33.30;;;;;;4965318;28;20061;-58
2024/01/30 11:19:02;;;;;;;7.05;4.78;;;22.00;33.30;;;;;;4964581;28;20051;-60
2024/01/30 11:21:29;;;;;;;6.45;4.13;;;22.00;33.20;;;;;;4965228;28;20054;-58
2024/01/30 11:23:57;;;;;;;5.65;4.10;;;22.00;33.30;;;;;;4965794;28;20054;-59
2024/01/30 11:26:30;;;;;;;5.53;4.05;;;21.90;33.20;;;;;;4961797;28;20050;-59
2024/01/30 11:28:57;;;;;;;5.50;4.07;;;21.90;33.20;;;;;;4964164;28;20061;-60
2024/01/30 11:31:24;;;;;;;4.78;3.97;;;21.90;33.30;;;;;;4962047;28;20055;-59
2024/01/30 11:33:54;;;;;;;4.93;3.80;;;21.90;33.30;;;;;;4966379;28;20055;-59
2024/01/30 11:36:26;;;;;;;6.85;4.53;;;21.90;33.30;;;;;;4961930;28;20051;-60
2024/01/30 11:38:53;;;;;;;5.43;3.85;;;21.90;33.30;;;;;;4961939;28;20055;-62
2024/01/30 11:41:21;;;;;;;9.63;4.05;;;21.90;33.30;;;;;;4962333;28;20054;-63
2024/01/30 11:43:54;;;;;;;7.25;4.15;;;21.80;33.30;;;;;;4961230;28;20050;-60
2024/01/30 11:46:21;;;;;;;9.35;4.13;;;21.80;33.30;;;;;;4963302;28;20058;-61
2024/01/30 11:48:48;;;;;;;5.15;3.60;;;21.80;33.30;;;;;;4966265;28;20050;-59
2024/01/30 11:51:18;;;;;;;6.68;3.50;;;21.80;33.40;;;;;;4960495;28;20510;-59
2024/01/30 11:53:45;;;;;;;5.30;3.33;;;21.80;33.40;;;;;;4965033;28;20055;-59
2024/01/30 11:56:13;;;;;;;6.97;3.42;;;21.80;33.40;;;;;;4963414;28;20055;-60
2024/01/30 11:58:44;;;;;;;4.72;3.25;;;21.70;33.40;;;;;;4962674;28;20701;-63
2024/01/30 12:01:13;;;;;;;5.63;3.55;;;21.70;33.40;;;;;;4965944;28;20055;-59
2024/01/30 12:03:40;;;;;;;5.15;3.65;;;21.70;33.40;;;;;;4962686;28;20062;-59
2024/01/30 12:06:07;;;;;;;5.13;3.60;;;21.70;33.50;;;;;;4960989;28;20055;-61
2024/01/30 12:08:35;;;;;;;4.43;3.58;;;21.70;33.50;;;;;;4964595;28;20042;-61
2024/01/30 12:11:05;;;;;;;4.82;3.33;;;21.60;33.50;;;;;;4965828;28;20055;-64
2024/01/30 12:13:32;;;;;;;4.40;3.13;;;21.60;33.50;;;;;;4960187;28;20067;-63
2024/01/30 12:16:00;;;;;;;5.40;3.63;;;21.60;33.50;;;;;;4960091;28;20405;-65
2024/01/30 12:18:28;;;;;;;6.30;3.75;;;21.60;33.50;;;;;;4992036;23;20054;-66
2024/01/30 12:20:59;;;;;;;5.03;3.15;;;21.60;33.60;;;;;;5004630;28;21011;-67
2024/01/30 12:23:27;;;;;;;6.38;3.70;;;21.60;33.60;;;;;;5007867;28;20503;-66
2024/01/30 12:25:55;;;;;;;5.68;3.50;;;21.60;33.60;;;;;;5008488;28;20054;-68
2024/01/30 12:28:22;;;;;;;5.00;3.28;;;21.60;33.70;;;;;;5006591;28;20053;-67
2024/01/30 12:30:49;;;;;;;6.55;3.47;;;21.60;34.20;;;;;;5009400;28;20057;-69
2024/01/30 12:33:20;;;;;;;5.25;3.45;;;21.60;33.70;;;;;;5008749;28;20429;-67
2024/01/30 12:35:49;;;;;;;5.93;3.33;;;21.70;33.70;;;;;;5000467;28;20058;-65
2024/01/30 12:38:16;;;;;;;3.45;2.85;;;21.70;33.70;;;;;;5010702;28;20053;-64
2024/01/30 12:40:44;;;;;;;4.97;3.47;;;21.80;33.70;;;;;;5009775;28;20054;-62
2024/01/30 12:43:12;;;;;;;5.05;3.20;;;21.90;33.70;;;;;;5005560;28;20050;-58